ALESUND / VIGRA current weather conditions

sailwx.info

Wind from 190 at 11 knots

Air temperature 3.0° C
Visibility: greater than 5.4 NM
Dewpoint -0.0° C
Present weather: Showers in the vicinity.

Last reported at 2014-Dec-19 14:20 UTC.
Time now 2014-Dec-19 15:51 UTC

Location: N 62°34' E 006°07'.
View on Google Maps.

See reports from other nearby stations

  
Tides and Currents Weather Stations Pressure Air Temp Water Temp Dewpoint Dewpoint Depression Visibility Wind Speed Wind Dir Waves Ship Positions
date/time (UTC)wind fromknots sea level pressurealtimeterstation pressurevisibilityair tempwater tempwave heightnotes
2014-Dec-19 14:20 190 11 5.4 3.0 Showers in the vicinity.
2014-Dec-19 13:20 200 11 5.4 2.0
2014-Dec-19 12:50 250 18 2.2 2.0 Rain snow.
2014-Dec-19 12:20 180 10 5.4 4.0
2014-Dec-19 11:50 190 12 5.4 3.0
2014-Dec-19 11:20 190 14 5.4 3.0
2014-Dec-19 10:50 210 15 5.4 3.0 Light drizzle.
2014-Dec-19 10:20 180 11 5.4 4.0
2014-Dec-19 09:20 180 12 5.4 4.0
2014-Dec-19 08:50 180 10 5.4 3.0 Light rain.
2014-Dec-19 08:20 150 14 5.4 2.0 Light rain.
2014-Dec-19 07:50 180 10 5.4 4.0
2014-Dec-19 07:20 210 16 5.4 3.0 Light rain.
2014-Dec-19 06:50 180 12 5.4 4.0
2014-Dec-19 06:20 180 11 5.4 4.0
2014-Dec-19 05:50 190 8 5.4 4.0
2014-Dec-19 05:20 180 10 5.4 4.0
2014-Dec-19 04:50 220 18 5.4 3.0 Light rain.
2014-Dec-19 04:20 180 11 5.4 5.0
2014-Dec-19 03:50 180 10 5.4 4.0
2014-Dec-19 03:20 190 11 5.4 4.0
2014-Dec-19 02:50 190 11 5.4 4.0
2014-Dec-19 02:20 220 11 2.0 3.0 Light rain.
2014-Dec-19 01:50 180 8 5.4 3.0
2014-Dec-19 01:20 230 9 2.2 2.0 Rain.
2014-Dec-19 00:50 190 11 5.4 4.0
2014-Dec-19 00:20 190 9 5.4 4.0
2014-Dec-18 23:50 230 18 5.4 4.0 Light rain.
2014-Dec-18 23:20 190 12 5.4 5.0
2014-Dec-18 22:50 190 10 5.4 5.0
2014-Dec-18 22:20 190 10 5.4 4.0
2014-Dec-18 21:50 190 11 5.4 4.0
2014-Dec-18 21:20 200 11 5.4 4.0
2014-Dec-18 20:50 210 13 5.4 5.0 Light drizzle.
2014-Dec-18 20:20 190 13 5.4 6.0
2014-Dec-18 19:50 180 11 5.4 6.0
2014-Dec-18 19:20 220 7 5.4 4.0 Light rain showers.
2014-Dec-18 18:50 270 13 3.8 3.0 Light rain showers.
2014-Dec-18 18:20 190 11 5.4 5.0
2014-Dec-18 17:50 190 12 5.4 5.0
2014-Dec-18 17:20 190 8 5.4 4.0
2014-Dec-18 16:50 190 15 5.4 4.0 Showers in the vicinity.
2014-Dec-18 16:20 200 14 gusting 24 5.4 5.0 Light rain showers.
2014-Dec-18 15:50 190 14 5.4 5.0
2014-Dec-18 15:20 190 8 5.4 5.0
2014-Dec-18 14:50 200 12 5.4 5.0
2014-Dec-18 14:20 230 17 5.4 5.0 Light rain.
2014-Dec-18 13:50 200 12 5.4 5.0
2014-Dec-18 13:20 220 16 5.4 4.0 Showers in the vicinity.
2014-Dec-18 12:50 220 7 5.4 5.0 Light rain.
2014-Dec-18 12:20 190 12 5.4 5.0
2014-Dec-18 11:50 180 11 5.4 5.0
2014-Dec-18 10:50 190 14 5.4 5.0
2014-Dec-18 10:20 210 15 5.4 6.0
2014-Dec-18 09:50 200 16 5.4 6.0
2014-Dec-18 09:20 200 13 5.4 6.0 Light drizzle.
2014-Dec-18 08:50 200 15 gusting 25 5.4 5.0 Light drizzle.
2014-Dec-18 08:20 180 10 5.4 6.0 Light rain.
2014-Dec-18 07:50 180 8 5.4 5.0 Light rain.
2014-Dec-18 07:20 190 8 5.4 6.0
2014-Dec-18 06:50 200 13 5.4 5.0 Light rain.
2014-Dec-18 06:20 160 11 5.4 4.0 Light rain.
2014-Dec-18 05:50 150 7 5.4 4.0
2014-Dec-18 05:20 190 11 2.7 4.0 Rain.
2014-Dec-18 04:50 190 12 4.9 5.0 Rain.
2014-Dec-18 04:20 170 11 5.4 6.0
2014-Dec-18 03:50 190 10 5.4 5.0
2014-Dec-18 03:20 180 9 5.4 5.0 Light rain.
2014-Dec-18 02:50 180 9 5.4 5.0
2014-Dec-18 02:20 190 13 5.4 5.0
2014-Dec-18 01:50 190 15 5.4 6.0
2014-Dec-18 01:20 190 13 5.4 6.0
2014-Dec-18 00:50 190 10 5.4 5.0 Light drizzle.
2014-Dec-18 00:20 190 10 5.4 6.0
2014-Dec-17 23:50 190 11 5.4 6.0
2014-Dec-17 23:20 180 11 5.4 6.0
2014-Dec-17 22:50 190 9 5.4 5.0
2014-Dec-17 22:20 190 9 5.4 5.0
2014-Dec-17 21:50 190 7 5.4 5.0
2014-Dec-17 21:20 220 11 3.8 4.0 Light rain.
2014-Dec-17 20:50 230 12 5.4 4.0 Light rain showers.
2014-Dec-17 20:20 190 16 5.4 5.0 Light rain showers.
2014-Dec-17 19:50 190 11 5.4 5.0
2014-Dec-17 19:20 190 13 5.4 5.0
2014-Dec-17 18:50 190 12 5.4 5.0
2014-Dec-17 18:20 180 11 5.4 4.0
2014-Dec-17 17:50 170 15 5.4 4.0 Light drizzle.
2014-Dec-17 17:20 150 14 5.4 4.0 Light drizzle.
2014-Dec-17 16:50 130 17 5.4 4.0 Light rain showers.
2014-Dec-17 16:20 130 16 5.4 5.0 Light rain showers.
2014-Dec-17 15:50 130 15 5.4 4.0
2014-Dec-17 15:20 130 16 4.0